Time;durP1;ratioP1;P1;durP2;ratioP2;P2;SDS_P1;SDS_P2;PMS_P1;PMS_P2;Temp;Humidity;BMP_temperature;BMP_pressure;BME280_temperature;BME280_humidity;BME280_pressure;Samples;Min_cycle;Max_cycle;Signal;HPM_P1;HPM_P2
2021/05/23 00:00:22;;;;;;;1.90;0.83;;;;;;;17.48;58.28;97680.00;4995656;28;20235;-73
2021/05/23 00:02:49;;;;;;;3.97;0.83;;;;;;;17.57;57.84;97689.25;4994310;28;20710;-72
2021/05/23 00:05:19;;;;;;;3.80;0.70;;;;;;;17.48;57.99;97686.22;4994867;28;20214;-71
2021/05/23 00:07:52;;;;;;;1.03;0.70;;;;;;;17.60;57.20;97678.81;4993727;28;20242;-72
2021/05/23 00:10:20;;;;;;;0.70;0.50;;;;;;;17.51;57.57;97690.28;4988634;28;20206;-73
2021/05/23 00:12:47;;;;;;;1.07;0.80;;;;;;;17.44;58.02;97693.19;5000895;28;20786;-72
2021/05/23 00:15:18;;;;;;;1.50;0.40;;;;;;;17.67;56.90;97683.97;4999894;28;20697;-72
2021/05/23 00:17:45;;;;;;;1.73;0.70;;;;;;;17.58;57.45;97680.13;4991476;28;20231;-72
2021/05/23 00:20:13;;;;;;;1.77;0.60;;;;;;;17.62;57.64;97689.31;5002704;28;20223;-72
2021/05/23 00:22:40;;;;;;;0.97;0.70;;;;;;;17.57;57.97;97691.97;4999448;28;20666;-72
2021/05/23 00:25:08;;;;;;;2.63;0.70;;;;;;;17.45;57.99;97688.59;4991820;28;20302;-72
2021/05/23 00:27:36;;;;;;;0.87;0.60;;;;;;;17.61;57.76;97683.13;4990311;28;20224;-72
2021/05/23 00:30:06;;;;;;;0.47;0.40;;;;;;;17.57;58.27;97687.41;5000976;28;20202;-72
2021/05/23 00:32:33;;;;;;;0.73;0.50;;;;;;;17.42;57.21;97683.72;4992077;28;20401;-72
2021/05/23 00:35:00;;;;;;;1.23;0.50;;;;;;;17.35;58.00;97677.66;4989762;28;20213;-73
2021/05/23 00:37:27;;;;;;;2.97;0.97;;;;;;;17.50;57.04;97684.09;4992474;28;20237;-72
2021/05/23 00:39:54;;;;;;;1.30;1.00;;;;;;;17.51;56.19;97691.13;4991259;28;20233;-72
2021/05/23 00:42:20;;;;;;;2.40;0.80;;;;;;;17.37;56.85;97699.81;4993966;28;20294;-72
2021/05/23 00:44:48;;;;;;;2.77;0.63;;;;;;;17.28;56.88;97704.81;4998568;28;20221;-69
2021/05/23 00:47:15;;;;;;;1.03;0.53;;;;;;;17.35;56.46;97708.16;4998115;28;20231;-69
2021/05/23 00:49:42;;;;;;;2.50;0.60;;;;;;;17.53;55.98;97704.34;4994907;28;20556;-70
2021/05/23 00:52:09;;;;;;;0.60;0.40;;;;;;;17.33;57.52;97701.38;5002397;28;20209;-71
2021/05/23 00:54:35;;;;;;;1.87;0.50;;;;;;;17.47;57.10;97700.78;4993536;28;20212;-70
2021/05/23 00:57:03;;;;;;;1.50;0.80;;;;;;;17.24;57.99;97702.88;5002994;28;20227;-71
2021/05/23 00:59:30;;;;;;;1.20;0.43;;;;;;;17.15;58.74;97698.97;4995030;28;20303;-72
2021/05/23 01:02:24;;;;;;;1.30;0.50;;;;;;;17.23;59.37;97691.25;4998178;28;20204;-73
2021/05/23 01:04:52;;;;;;;1.03;0.50;;;;;;;17.24;59.98;97681.31;4989473;28;20204;-73
2021/05/23 01:07:18;;;;;;;1.90;0.60;;;;;;;17.40;59.37;97685.84;4988914;28;20231;-72
2021/05/23 01:09:45;;;;;;;0.60;0.40;;;;;;;17.24;59.99;97690.22;4999039;28;20835;-71
2021/05/23 01:12:36;;;;;;;0.57;0.50;;;;;;;17.18;61.08;97691.19;4997196;28;20230;-72
2021/05/23 01:15:04;;;;;;;1.53;0.70;;;;;;;17.31;60.53;97700.78;4990969;28;20216;-73
2021/05/23 01:17:45;;;;;;;2.37;0.60;;;;;;;17.31;61.23;97708.88;4991366;28;20330;-72
2021/05/23 01:20:33;;;;;;;0.70;0.47;;;;;;;17.43;61.11;97713.13;4990128;28;20243;-72
2021/05/23 01:23:10;;;;;;;1.23;0.50;;;;;;;17.09;61.92;97703.50;4999002;28;20217;-71
2021/05/23 01:25:39;;;;;;;0.87;0.70;;;;;;;16.84;64.08;97707.72;4989856;28;20214;-71
2021/05/23 01:28:07;;;;;;;1.07;0.60;;;;;;;17.26;62.54;97711.50;4999569;28;20707;-71
2021/05/23 01:30:37;;;;;;;1.60;0.60;;;;;;;17.08;63.65;97704.53;4991826;28;20665;-71
2021/05/23 01:33:06;;;;;;;0.90;0.73;;;;;;;16.94;64.75;97715.94;4989983;28;20282;-72
2021/05/23 01:35:35;;;;;;;1.23;0.60;;;;;;;16.47;68.82;97714.69;4989214;28;20718;-72
2021/05/23 01:38:03;;;;;;;0.87;0.40;;;;;;;17.05;65.60;97720.41;5001880;28;20246;-72
2021/05/23 01:40:32;;;;;;;0.50;0.40;;;;;;;16.54;68.33;97720.72;4994941;28;20228;-72
2021/05/23 01:43:00;;;;;;;1.50;0.43;;;;;;;16.83;67.36;97722.25;4995630;28;20649;-72
2021/05/23 01:45:27;;;;;;;1.23;0.60;;;;;;;16.97;66.72;97718.16;4991488;28;20200;-71
2021/05/23 01:47:54;;;;;;;2.10;0.60;;;;;;;17.16;65.65;97717.59;5001372;28;20234;-72
2021/05/23 01:50:23;;;;;;;1.33;0.60;;;;;;;16.99;66.82;97716.00;5000181;28;20290;-72
2021/05/23 01:52:52;;;;;;;1.13;0.60;;;;;;;16.89;67.67;97714.00;5004288;28;20263;-74
2021/05/23 01:55:19;;;;;;;1.73;0.83;;;;;;;16.52;69.88;97712.06;4996845;28;20207;-71
2021/05/23 01:57:47;;;;;;;0.70;0.70;;;;;;;16.98;67.82;97715.19;4999678;28;20733;-71
2021/05/23 02:00:17;;;;;;;2.47;0.43;;;;;;;16.78;69.12;97720.31;4987396;28;20238;-72
2021/05/23 02:02:44;;;;;;;1.07;0.43;;;;;;;16.63;69.20;97717.38;4996015;28;20207;-71
2021/05/23 02:05:12;;;;;;;1.07;0.60;;;;;;;17.03;67.74;97733.34;5004429;28;20207;-71
2021/05/23 02:07:40;;;;;;;1.93;0.70;;;;;;;16.73;69.40;97727.50;4991818;28;20231;-71
2021/05/23 02:10:08;;;;;;;0.63;0.40;;;;;;;16.92;68.45;97731.56;5005956;28;20680;-72
2021/05/23 02:12:35;;;;;;;1.03;0.50;;;;;;;16.66;69.57;97729.53;4986262;28;20694;-72
2021/05/23 02:15:01;;;;;;;0.93;0.40;;;;;;;16.45;70.98;97731.09;4982893;28;20234;-71
2021/05/23 02:17:29;;;;;;;1.70;0.73;;;;;;;16.89;69.91;97737.44;4993113;28;20224;-72
2021/05/23 02:19:56;;;;;;;1.90;0.57;;;;;;;16.83;71.59;97741.13;4998024;28;20411;-72
2021/05/23 02:22:23;;;;;;;1.97;0.50;;;;;;;16.53;76.70;97744.16;4985522;28;20601;-72
2021/05/23 02:24:50;;;;;;;0.53;0.50;;;;;;;16.35;84.48;97746.22;4992691;28;20209;-72
2021/05/23 02:27:16;;;;;;;2.20;0.70;;;;;;;15.44;94.70;97750.94;4992096;28;20320;-72
2021/05/23 02:29:43;;;;;;;3.40;0.73;;;;;;;15.05;99.10;97765.13;4999738;28;20225;-72
2021/05/23 02:32:10;;;;;;;1.03;0.60;;;;;;;14.76;100.00;97769.56;4998384;28;20737;-72
2021/05/23 02:34:46;;;;;;;2.33;0.50;;;;;;;14.82;100.00;97790.13;4993829;28;20207;-70
2021/05/23 02:37:13;;;;;;;3.97;0.60;;;;;;;14.46;100.00;97782.25;4988166;28;20238;-70
2021/05/23 02:39:40;;;;;;;0.70;0.40;;;;;;;14.12;100.00;97792.84;4995466;28;20701;-70
2021/05/23 02:42:07;;;;;;;1.53;0.30;;;;;;;14.11;100.00;97793.91;4994119;28;20208;-70
2021/05/23 02:44:34;;;;;;;1.10;0.70;;;;;;;14.11;100.00;97778.63;4995345;28;20211;-72
2021/05/23 02:47:02;;;;;;;0.30;0.30;;;;;;;14.43;100.00;97773.84;4996635;28;20231;-71
2021/05/23 02:49:28;;;;;;;0.40;0.30;;;;;;;14.45;100.00;97780.63;4988773;28;20205;-72
2021/05/23 02:51:56;;;;;;;0.90;0.30;;;;;;;14.42;100.00;97769.50;4997421;28;20215;-72
2021/05/23 02:54:23;;;;;;;0.97;0.40;;;;;;;14.26;100.00;97770.16;5004853;28;20203;-72
2021/05/23 02:56:50;;;;;;;0.40;0.30;;;;;;;14.35;100.00;97772.31;5001708;28;20693;-70
2021/05/23 02:59:16;;;;;;;2.03;0.53;;;;;;;14.36;100.00;97770.44;4990815;28;20215;-71
2021/05/23 03:01:43;;;;;;;0.57;0.50;;;;;;;14.78;100.00;97763.94;4992209;28;20214;-72
2021/05/23 03:04:10;;;;;;;0.70;0.37;;;;;;;14.39;100.00;97753.88;5003055;28;20233;-73
2021/05/23 03:06:37;;;;;;;0.83;0.40;;;;;;;14.27;100.00;97756.53;4999714;28;20304;-72
2021/05/23 03:09:05;;;;;;;1.23;0.40;;;;;;;14.22;100.00;97758.25;4997940;28;20204;-72
2021/05/23 03:11:32;;;;;;;0.40;0.40;;;;;;;13.79;100.00;97760.31;4996256;28;20201;-70
2021/05/23 03:13:58;;;;;;;1.83;0.47;;;;;;;13.69;100.00;97774.25;4996605;28;20553;-73
2021/05/23 03:16:25;;;;;;;1.03;0.50;;;;;;;14.07;100.00;97768.56;4994674;28;20223;-72
2021/05/23 03:18:52;;;;;;;1.03;0.50;;;;;;;14.20;100.00;97776.47;5006623;28;20214;-72
2021/05/23 03:21:19;;;;;;;1.30;0.37;;;;;;;14.10;100.00;97787.72;4998274;28;20223;-72
2021/05/23 03:23:45;;;;;;;0.93;0.37;;;;;;;13.94;100.00;97793.72;5000761;28;20234;-72
2021/05/23 03:26:13;;;;;;;0.27;0.23;;;;;;;13.78;100.00;97812.31;4993096;28;20206;-72
2021/05/23 03:28:40;;;;;;;0.30;0.30;;;;;;;13.89;100.00;97823.09;4995940;28;20210;-72
2021/05/23 03:31:07;;;;;;;0.93;0.40;;;;;;;13.82;100.00;97816.19;4995517;28;20199;-73
2021/05/23 03:33:33;;;;;;;1.80;0.70;;;;;;;13.92;100.00;97814.59;5002020;28;20222;-71
2021/05/23 03:36:00;;;;;;;0.80;0.50;;;;;;;14.03;100.00;97819.19;4991737;28;20208;-72
2021/05/23 03:38:27;;;;;;;0.40;0.40;;;;;;;14.10;100.00;97814.56;4998297;28;20211;-72
2021/05/23 03:40:54;;;;;;;2.97;0.40;;;;;;;14.18;100.00;97818.78;5001780;28;20236;-72
2021/05/23 03:43:21;;;;;;;0.50;0.47;;;;;;;14.07;100.00;97825.75;5009668;28;20210;-72
2021/05/23 03:45:48;;;;;;;1.33;0.47;;;;;;;14.05;100.00;97811.75;5004941;28;20268;-72
2021/05/23 03:48:15;;;;;;;0.83;0.60;;;;;;;14.20;100.00;97822.09;5010254;28;20227;-73
2021/05/23 03:50:42;;;;;;;0.33;0.23;;;;;;;14.00;100.00;97830.38;5001224;28;20293;-71
2021/05/23 03:53:09;;;;;;;0.43;0.30;;;;;;;14.01;100.00;97839.22;5007379;28;20207;-72
2021/05/23 03:55:36;;;;;;;0.60;0.30;;;;;;;13.84;100.00;97835.53;5003644;28;20216;-72
2021/05/23 03:58:07;;;;;;;3.17;0.50;;;;;;;13.96;100.00;97839.09;5008464;28;20218;-71
2021/05/23 04:00:36;;;;;;;0.30;0.30;;;;;;;13.87;100.00;97846.63;4997404;28;20230;-72
2021/05/23 04:03:03;;;;;;;1.33;0.40;;;;;;;14.08;100.00;97853.41;4986825;28;20206;-71
2021/05/23 04:05:31;;;;;;;0.30;0.30;;;;;;;14.05;100.00;97865.41;4987348;28;20208;-70
2021/05/23 04:07:58;;;;;;;0.47;0.27;;;;;;;14.27;100.00;97863.91;5001332;28;20309;-71
2021/05/23 04:10:29;;;;;;;0.33;0.27;;;;;;;14.29;100.00;97869.03;4989209;28;20205;-71
2021/05/23 04:12:57;;;;;;;0.23;0.23;;;;;;;13.96;100.00;97872.13;5007654;28;20239;-73
2021/05/23 04:15:24;;;;;;;0.70;0.30;;;;;;;13.87;100.00;97886.88;5000532;28;20210;-72
2021/05/23 04:17:52;;;;;;;1.10;0.50;;;;;;;14.36;100.00;97889.38;4998115;28;20228;-72
2021/05/23 04:20:20;;;;;;;0.30;0.30;;;;;;;14.30;100.00;97887.63;4992168;28;20223;-71
2021/05/23 04:22:48;;;;;;;0.93;0.43;;;;;;;14.16;100.00;97883.44;4999191;28;20208;-72
2021/05/23 04:25:15;;;;;;;0.30;0.30;;;;;;;14.16;100.00;97890.66;5005265;28;20210;-72
2021/05/23 04:27:43;;;;;;;0.43;0.30;;;;;;;14.35;100.00;97894.97;5001837;28;20220;-73
2021/05/23 04:30:11;;;;;;;0.30;0.30;;;;;;;14.26;100.00;97889.09;4995857;28;20206;-71
2021/05/23 04:32:39;;;;;;;0.67;0.27;;;;;;;14.51;100.00;97895.16;4987346;28;20224;-71
2021/05/23 04:35:08;;;;;;;1.17;0.37;;;;;;;14.39;100.00;97902.34;4997326;28;20264;-71
2021/05/23 04:37:35;;;;;;;1.47;0.40;;;;;;;14.38;100.00;97894.53;5014200;23;20237;-70
2021/05/23 04:40:02;;;;;;;2.00;0.40;;;;;;;14.28;100.00;97894.25;5008204;28;20227;-70
2021/05/23 04:42:29;;;;;;;2.63;0.57;;;;;;;14.65;100.00;97893.91;5009724;28;20209;-71
2021/05/23 04:44:56;;;;;;;1.17;0.40;;;;;;;14.62;100.00;97905.13;5002719;28;20214;-70
2021/05/23 04:47:24;;;;;;;2.40;0.40;;;;;;;14.29;100.00;97906.63;5005650;28;20274;-70
2021/05/23 04:49:51;;;;;;;0.60;0.30;;;;;;;14.75;100.00;97906.78;5011533;28;20207;-70
2021/05/23 04:52:18;;;;;;;0.90;0.40;;;;;;;14.71;100.00;97905.59;5002361;28;20203;-70
2021/05/23 04:54:45;;;;;;;0.30;0.30;;;;;;;14.83;100.00;97914.50;5005350;28;20203;-70
2021/05/23 04:57:12;;;;;;;1.70;0.30;;;;;;;14.97;100.00;97910.56;5005957;28;20361;-70
2021/05/23 04:59:39;;;;;;;0.97;0.40;;;;;;;14.96;100.00;97917.00;5006969;28;20219;-70
2021/05/23 05:02:06;;;;;;;1.23;0.30;;;;;;;15.34;100.00;97928.22;5010682;28;20225;-71
2021/05/23 05:04:33;;;;;;;1.47;0.50;;;;;;;14.87;100.00;97934.50;5008430;28;20303;-70
2021/05/23 05:07:00;;;;;;;0.40;0.30;;;;;;;15.38;100.00;97935.56;5009638;28;20253;-70
2021/05/23 05:09:27;;;;;;;0.90;0.40;;;;;;;14.96;100.00;97939.34;5007684;28;20200;-72
2021/05/23 05:11:54;;;;;;;0.63;0.40;;;;;;;15.33;100.00;97953.41;5006352;28;20578;-71
2021/05/23 05:14:21;;;;;;;1.00;0.47;;;;;;;14.95;100.00;97961.06;5002987;28;20226;-71
2021/05/23 05:16:48;;;;;;;0.67;0.40;;;;;;;15.36;100.00;97956.50;5005870;28;20714;-71
2021/05/23 05:19:15;;;;;;;0.77;0.30;;;;;;;15.50;100.00;97963.28;5002820;28;20692;-70
2021/05/23 05:21:41;;;;;;;1.03;0.60;;;;;;;15.31;100.00;97959.03;5002279;28;20228;-70
2021/05/23 05:24:09;;;;;;;1.67;0.90;;;;;;;15.46;99.59;97958.63;5011702;28;20209;-71
2021/05/23 05:26:37;;;;;;;3.00;0.57;;;;;;;15.32;100.00;97965.22;5003707;28;20685;-71
2021/05/23 05:29:04;;;;;;;0.97;0.47;;;;;;;15.85;97.21;97972.19;5004075;28;20847;-71
2021/05/23 05:31:31;;;;;;;0.67;0.40;;;;;;;15.87;98.30;97978.16;5000932;28;20210;-71
2021/05/23 05:33:58;;;;;;;0.60;0.50;;;;;;;16.24;96.25;97973.28;5003550;28;20629;-71
2021/05/23 05:36:25;;;;;;;0.73;0.40;;;;;;;16.20;96.78;97980.22;5011193;28;20212;-71
2021/05/23 05:38:52;;;;;;;1.43;0.40;;;;;;;16.22;94.40;97988.88;5005844;28;20232;-70
2021/05/23 05:41:20;;;;;;;0.27;0.20;;;;;;;16.11;94.86;97987.84;5009090;28;20259;-70
2021/05/23 05:43:48;;;;;;;0.70;0.40;;;;;;;16.30;92.78;97996.56;5008939;28;20220;-71
2021/05/23 05:46:15;;;;;;;2.20;0.50;;;;;;;16.11;93.66;97995.91;5009223;28;20224;-70
2021/05/23 05:48:42;;;;;;;1.40;0.30;;;;;;;16.16;94.96;98008.69;5009781;28;20631;-73
2021/05/23 05:51:09;;;;;;;0.87;0.50;;;;;;;16.31;94.67;98011.72;5008247;28;20726;-72
2021/05/23 05:53:35;;;;;;;1.43;0.60;;;;;;;16.53;93.96;98018.13;4999853;28;20211;-72
2021/05/23 05:56:02;;;;;;;0.97;0.63;;;;;;;16.95;92.11;98022.19;5010330;28;20209;-72
2021/05/23 05:58:30;;;;;;;0.40;0.40;;;;;;;16.68;92.17;98035.44;5001937;28;20313;-70
2021/05/23 06:00:57;;;;;;;0.60;0.30;;;;;;;16.56;92.73;98033.81;5009398;28;20282;-70
2021/05/23 06:03:24;;;;;;;2.43;0.40;;;;;;;16.65;93.51;98035.91;5011318;28;20229;-74
2021/05/23 06:05:51;;;;;;;1.03;0.53;;;;;;;16.88;89.93;98043.91;5012994;28;20211;-72
2021/05/23 06:08:18;;;;;;;0.87;0.40;;;;;;;16.46;91.12;98041.69;5000631;28;20240;-73
2021/05/23 06:10:45;;;;;;;1.70;0.43;;;;;;;16.95;91.59;98044.59;5004085;28;20215;-72
2021/05/23 06:13:12;;;;;;;1.57;0.73;;;;;;;16.91;91.00;98043.44;5005270;28;20209;-75
2021/05/23 06:15:38;;;;;;;0.50;0.50;;;;;;;17.22;90.02;98042.16;5013677;28;20205;-76
2021/05/23 06:18:06;;;;;;;1.43;0.50;;;;;;;17.14;86.59;98043.34;5011445;28;20695;-78
2021/05/23 06:20:33;;;;;;;0.80;0.40;;;;;;;17.14;88.39;98048.75;5005632;28;20737;-76
2021/05/23 06:23:00;;;;;;;0.67;0.50;;;;;;;17.09;88.66;98043.25;5001835;28;20194;-75
2021/05/23 06:25:27;;;;;;;3.00;0.70;;;;;;;17.54;84.89;98049.50;5010939;28;20213;-72
2021/05/23 06:27:54;;;;;;;0.90;0.50;;;;;;;17.44;86.37;98049.34;5011342;28;20364;-72
2021/05/23 06:30:22;;;;;;;1.67;0.67;;;;;;;17.32;84.15;98045.81;5015630;28;20203;-74
2021/05/23 06:32:48;;;;;;;0.83;0.57;;;;;;;17.25;82.23;98053.25;5013206;28;20205;-71
2021/05/23 06:35:17;;;;;;;2.30;0.60;;;;;;;17.64;84.09;98056.94;5009199;28;20213;-72
2021/05/23 06:37:45;;;;;;;0.60;0.40;;;;;;;17.50;85.44;98053.75;5009358;28;20254;-75
2021/05/23 06:40:13;;;;;;;2.93;0.90;;;;;;;17.01;84.13;98048.19;5007118;28;20226;-73
2021/05/23 06:42:40;;;;;;;0.90;0.43;;;;;;;17.39;83.47;98057.34;5016050;28;20207;-74
2021/05/23 06:45:08;;;;;;;3.23;1.47;;;;;;;17.32;82.55;98059.31;5015301;28;20203;-72
2021/05/23 06:47:34;;;;;;;0.80;0.40;;;;;;;17.82;80.27;98059.41;5012709;28;20219;-72
2021/05/23 06:50:01;;;;;;;0.87;0.53;;;;;;;18.03;79.59;98067.59;5009201;28;20227;-78
2021/05/23 06:52:29;;;;;;;2.33;0.40;;;;;;;17.60;82.44;98061.19;5014359;28;20210;-74
2021/05/23 06:54:56;;;;;;;0.93;0.40;;;;;;;18.02;81.72;98046.22;5013985;28;20214;-73
2021/05/23 06:57:23;;;;;;;2.33;0.50;;;;;;;18.03;80.56;98062.19;5011543;28;20219;-75
2021/05/23 06:59:49;;;;;;;0.97;0.60;;;;;;;17.78;78.88;98071.78;5014293;28;20206;-75
2021/05/23 07:02:16;;;;;;;0.67;0.50;;;;;;;18.05;78.46;98068.16;5014558;28;20578;-75
2021/05/23 07:04:43;;;;;;;0.53;0.40;;;;;;;16.90;85.07;98054.44;5007327;28;20210;-75
2021/05/23 07:07:10;;;;;;;1.27;0.57;;;;;;;18.05;75.91;98070.03;5012620;28;20220;-74
2021/05/23 07:09:39;;;;;;;1.57;0.50;;;;;;;18.11;78.97;98066.34;5012086;28;20306;-77
2021/05/23 07:12:07;;;;;;;1.33;0.47;;;;;;;17.72;80.03;98060.06;5015595;28;20572;-77
2021/05/23 07:14:34;;;;;;;0.90;0.57;;;;;;;18.26;74.62;98070.09;5015671;28;20574;-78
2021/05/23 07:17:00;;;;;;;0.50;0.50;;;;;;;18.33;73.58;98068.06;5012110;28;20223;-75
2021/05/23 07:19:27;;;;;;;3.83;0.87;;;;;;;18.76;70.93;98078.13;5003223;28;20614;-76
2021/05/23 07:21:54;;;;;;;0.43;0.40;;;;;;;17.95;72.63;98089.63;5007248;28;20441;-78
2021/05/23 07:24:21;;;;;;;0.40;0.40;;;;;;;19.04;70.04;98089.56;5012388;28;20205;-77
2021/05/23 07:26:48;;;;;;;0.83;0.40;;;;;;;18.94;67.29;98089.44;5007746;28;20214;-79
2021/05/23 07:29:15;;;;;;;1.50;0.70;;;;;;;19.40;65.68;98083.50;5005498;28;20217;-75
2021/05/23 07:31:42;;;;;;;0.50;0.40;;;;;;;18.28;70.52;98076.06;5015855;28;20200;-77
2021/05/23 07:34:09;;;;;;;0.90;0.50;;;;;;;19.01;66.79;98068.44;5006351;28;20203;-76
2021/05/23 07:36:36;;;;;;;0.50;0.50;;;;;;;18.49;69.77;98069.13;5011663;28;20211;-75
2021/05/23 07:39:03;;;;;;;0.97;0.60;;;;;;;18.33;67.67;98083.44;5006887;28;20658;-76
2021/05/23 07:41:29;;;;;;;0.73;0.40;;;12.30;1.00;;;18.43;69.28;98102.53;5011612;28;20864;-72
2021/05/23 07:43:57;;;;;;;1.00;0.63;;;12.30;1.00;;;16.90;89.61;98122.69;5013966;28;20295;-75
2021/05/23 07:46:24;;;;;;;0.77;0.63;;;;;;;16.89;88.23;98131.00;5009972;28;20269;-71
2021/05/23 07:48:50;;;;;;;0.83;0.60;;;;;;;14.09;100.00;98128.75;5007723;28;20283;-77
2021/05/23 07:51:18;;;;;;;1.83;0.50;;;;;;;13.96;100.00;98121.66;5013286;28;20286;-71
2021/05/23 07:53:45;;;;;;;2.40;0.70;;;;;;;13.31;100.00;98116.75;5008026;28;20266;-71
2021/05/23 07:56:12;;;;;;;1.13;0.47;;;;;;;14.16;100.00;98121.47;5006153;28;20204;-70
2021/05/23 07:58:39;;;;;;;0.80;0.50;;;;;;;13.89;100.00;98120.06;5012394;28;20599;-71
2021/05/23 08:01:07;;;;;;;1.30;0.60;;;;;;;13.50;100.00;98113.13;5012615;28;20587;-71
2021/05/23 08:03:33;;;;;;;2.33;0.60;;;;;;;13.89;100.00;98114.69;5013310;28;20206;-70
2021/05/23 08:06:00;;;;;;;0.90;0.60;;;;;;;14.05;100.00;98112.28;5010281;28;20211;-69
2021/05/23 08:08:27;;;;;;;1.90;0.60;;;;;;;13.90;100.00;98119.84;5006266;28;21028;-73
2021/05/23 08:10:54;;;;;;;1.10;0.63;;;;;;;13.73;100.00;98118.72;5012162;28;20192;-75
2021/05/23 08:13:20;;;;;;;1.33;0.70;;;;;;;13.90;100.00;98119.00;5010048;28;20222;-71
2021/05/23 08:15:47;;;;;;;2.10;0.50;;;;;;;14.02;100.00;98119.94;5010862;28;20214;-73
2021/05/23 08:18:18;;;;;;;1.50;0.60;;;;;;;14.78;100.00;98113.19;5011196;28;20223;-72
2021/05/23 08:20:46;;;;;;;2.90;0.40;;;;;;;14.85;100.00;98111.25;5011171;28;20254;-75
2021/05/23 08:23:12;;;;;;;2.67;0.70;;;;;;;15.38;100.00;98105.00;5013951;28;20208;-73
2021/05/23 08:25:39;;;;;;;1.70;0.50;;;;;;;15.59;100.00;98109.00;5006132;28;20207;-73
2021/05/23 08:28:06;;;;;;;1.80;0.60;;;;;;;15.15;100.00;98112.13;5012335;28;20687;-77
2021/05/23 08:30:33;;;;;;;1.17;0.60;;;;;;;15.37;100.00;98108.72;5010476;28;20235;-72
2021/05/23 08:33:00;;;;;;;2.40;0.60;;;;;;;15.62;100.00;98113.94;5006450;28;20200;-72
2021/05/23 08:35:28;;;;;;;1.80;0.63;;;;;;;16.52;100.00;98118.88;5012271;28;20202;-75
2021/05/23 08:37:55;;;;;;;1.00;0.63;;;;;;;16.36;100.00;98114.97;5013025;28;20592;-72
2021/05/23 08:40:22;;;;;;;1.50;0.60;;;;;;;17.17;100.00;98120.25;5003406;28;20641;-72
2021/05/23 08:42:49;;;;;;;1.50;0.60;;;;;;;16.93;100.00;98106.00;5006324;28;20234;-72
2021/05/23 08:45:17;;;;;;;0.47;0.40;;;;;;;17.31;100.00;98121.59;5012360;28;20565;-73
2021/05/23 08:47:45;;;;;;;1.13;0.60;;;;;;;17.24;100.00;98110.13;5005118;28;20230;-74
2021/05/23 08:50:12;;;;;;;0.63;0.60;;;;;;;18.24;96.37;98114.66;5010513;28;20215;-75
2021/05/23 08:52:40;;;;;;;2.20;0.80;;;;;;;17.47;96.02;98124.38;5007179;28;20359;-72
2021/05/23 08:55:08;;;;;;;2.23;0.77;;;;;;;17.91;94.36;98112.75;5008984;28;20211;-78
2021/05/23 08:57:35;;;;;;;2.73;0.80;;;;;;;17.83;98.26;98107.75;5012727;28;20227;-71
2021/05/23 09:00:03;;;;;;;2.87;0.77;;;;;;;17.92;89.83;98117.09;5006830;28;20251;-71
2021/05/23 09:02:30;;;;;;;1.50;0.53;;;;;;;17.34;95.89;98113.03;5006204;28;20206;-71
2021/05/23 09:04:57;;;;;;;3.13;0.77;;;;;;;17.26;97.36;98119.63;5006132;28;20255;-71
2021/05/23 09:07:24;;;;;;;0.90;0.40;;;;;;;17.47;97.16;98113.59;5009286;28;20232;-69
2021/05/23 09:09:51;;;;;;;0.93;0.50;;;;;;;16.77;94.96;98125.63;5011820;28;20741;-69
2021/05/23 09:12:19;;;;;;;2.40;0.60;;;;;;;16.31;92.24;98132.91;5011919;28;20287;-70
2021/05/23 09:14:48;;;;;;;0.87;0.60;;;;;;;16.78;98.38;98123.75;5006696;28;20237;-69
2021/05/23 09:17:24;;;;;;;1.13;0.70;;;;;;;17.42;93.76;98143.16;5006557;28;20719;-70
2021/05/23 09:19:51;;;;;;;0.80;0.80;;;;;;;16.78;92.71;98129.97;5009932;28;20286;-71
2021/05/23 09:22:20;;;;;;;2.53;1.00;;;;;;;17.05;88.84;98132.94;5004632;28;20209;-70
2021/05/23 09:24:52;;;;;;;1.47;0.40;;;;;;;16.87;85.76;98143.91;5010164;28;20303;-70
2021/05/23 09:27:20;;;;;;;2.10;0.50;;;;;;;17.64;86.17;98140.63;5000562;28;20284;-74
2021/05/23 09:29:48;;;;;;;1.10;0.70;;;;;;;17.84;92.23;98132.88;5013436;28;20207;-72
2021/05/23 09:32:17;;;;;;;1.20;0.60;;;;;;;17.87;86.02;98144.00;4998236;28;20211;-73
2021/05/23 09:34:47;;;;;;;2.50;1.00;;;;;;;18.20;91.38;98135.13;5010634;28;20214;-74
2021/05/23 09:37:15;;;;;;;1.07;0.50;;;;;;;17.77;84.67;98148.41;5007062;28;20231;-72
2021/05/23 09:39:42;;;;;;;3.10;0.63;;;;;;;17.41;82.65;98151.50;5005507;28;20572;-73
2021/05/23 09:42:12;;;;;;;2.20;0.80;;;;;;;17.47;87.39;98167.56;5009300;28;20227;-73
2021/05/23 09:44:39;;;;;;;1.83;0.40;;;;;;;16.96;89.86;98191.81;5006712;28;20203;-73
2021/05/23 09:47:09;;;;;;;0.67;0.50;;;;;;;16.13;89.51;98179.59;5008860;28;20305;-74
2021/05/23 09:49:41;;;;;;;0.30;0.30;;;;;;;16.00;88.27;98187.06;5009893;28;20214;-76
2021/05/23 09:52:10;;;;;;;1.13;0.50;;;;;;;16.43;90.14;98182.22;5005926;28;20581;-73
2021/05/23 09:54:46;;;;;;;1.80;0.50;;;;;;;16.88;89.22;98177.88;5004868;28;20205;-74
2021/05/23 09:57:15;;;;;;;1.83;0.57;;;;;;;16.89;82.68;98187.59;5007593;28;20276;-74
2021/05/23 09:59:42;;;;;;;0.90;0.60;;;;;;;17.67;82.04;98184.13;5011486;28;20216;-76
2021/05/23 10:02:09;;;;;;;3.43;0.60;;;;;;;17.22;78.51;98194.00;5013309;28;20322;-73
2021/05/23 10:04:38;;;;;;;1.47;0.50;;;;;;;17.23;79.11;98197.53;5010830;28;20258;-74
2021/05/23 10:07:06;;;;;;;1.90;0.50;;;;;;;17.54;80.29;98183.63;5002111;28;20703;-78
2021/05/23 10:09:33;;;;;;;0.70;0.50;;;;;;;17.75;82.21;98180.22;5010247;28;20214;-75
2021/05/23 10:12:00;;;;;;;1.63;0.60;;;;;;;18.20;81.67;98187.28;5008700;28;20191;-79
2021/05/23 10:14:28;;;;;;;5.03;1.23;;;;;;;18.67;81.17;98183.19;5005981;28;20204;-78
2021/05/23 10:16:56;;;;;;;2.63;1.03;;;;;;;18.78;72.90;98193.06;5006720;28;20334;-77
2021/05/23 10:19:24;;;;;;;3.07;0.53;;;;;;;19.21;67.85;98195.81;5014924;28;20209;-76
2021/05/23 10:21:51;;;;;;;1.27;0.57;;;;;;;19.13;62.29;98206.28;5012142;28;20225;-78
2021/05/23 10:24:23;;;;;;;2.43;0.70;;;;;;;19.88;63.38;98201.81;5011744;28;20210;-75
2021/05/23 10:26:53;;;;;;;2.87;0.70;;;;;;;20.17;64.24;98184.25;5007470;28;20203;-75
2021/05/23 10:29:20;;;;;;;2.93;0.90;;;;;;;20.59;55.37;98198.69;5011154;28;20199;-76
2021/05/23 10:31:48;;;;;;;1.63;0.50;;;;;;;20.62;59.15;98196.25;5003833;28;20592;-73
2021/05/23 10:34:15;;;;;;;0.97;0.50;;;14.50;1.00;;;20.69;54.66;98201.47;5006717;28;20212;-75
2021/05/23 10:36:44;;;;;;;1.87;0.67;;;14.60;1.00;;;21.15;54.01;98196.13;5003380;28;20684;-74
2021/05/23 10:39:15;;;;;;;2.73;0.80;;;15.00;1.00;;;21.04;47.99;98205.28;5081506;22;20249;-72
2021/05/23 10:41:43;;;;;;;6.93;1.40;;;15.20;1.00;;;21.25;48.65;98208.91;5067240;28;20219;-71
2021/05/23 10:44:12;;;;;;;4.50;1.00;;;15.50;1.00;;;21.46;48.42;98197.06;5062161;28;20199;-70
2021/05/23 10:46:49;;;;;;;2.27;0.70;;;15.80;1.00;;;20.23;53.80;98192.16;5064609;28;20662;-72
2021/05/23 10:49:16;;;;;;;3.53;0.80;;;15.40;1.00;;;20.91;55.25;98177.78;5049003;28;20223;-71
2021/05/23 10:51:52;;;;;;;5.73;0.90;;;15.30;1.00;;;20.20;52.04;98200.81;5051705;28;20212;-71
2021/05/23 10:54:19;;;;;;;1.77;0.73;;;14.90;1.00;;;19.58;57.29;98196.88;5046555;28;20229;-74
2021/05/23 10:56:45;;;;;;;6.30;0.90;;;14.50;1.00;;;20.24;56.11;98188.38;5052881;28;20208;-74
2021/05/23 10:59:14;;;;;;;1.47;0.43;;;14.50;1.00;;;19.16;59.48;98179.53;5054096;28;20702;-72
2021/05/23 11:01:43;;;;;;;1.90;0.60;;;14.00;1.00;;;18.51;60.85;98185.91;5048510;28;20698;-78
2021/05/23 11:04:14;;;;;;;2.23;0.70;;;13.80;1.00;;;19.20;60.47;98180.66;5051764;28;20198;-74
2021/05/23 11:06:42;;;;;;;2.17;0.77;;;13.70;1.00;;;19.63;57.24;98193.41;5043729;28;20293;-74
2021/05/23 11:09:13;;;;;;;1.60;0.60;;;13.90;1.00;;;19.00;58.89;98190.41;5054601;28;20210;-74
2021/05/23 11:11:40;;;;;;;1.60;0.70;;;13.90;1.00;;;18.70;57.66;98222.44;5051511;28;20220;-77
2021/05/23 11:14:22;;;;;;;1.43;0.73;;;13.80;1.00;;;19.09;53.18;98216.78;5049817;28;20225;-79
2021/05/23 11:16:54;;;;;;;2.30;0.70;;;14.00;1.00;;;19.53;54.66;98212.22;5054058;28;20335;-74
2021/05/23 11:19:23;;;;;;;3.47;1.20;;;14.20;1.00;;;19.47;55.61;98224.91;5049703;28;20282;-76
2021/05/23 11:21:52;;;;;;;1.27;0.70;;;14.20;1.00;;;18.73;58.97;98220.03;5048798;28;20259;-74
2021/05/23 11:24:18;;;;;;;3.50;0.90;;;14.10;1.00;;;19.46;61.92;98217.84;5052151;28;20221;-74
2021/05/23 11:26:45;;;;;;;0.87;0.50;;;14.10;1.00;;;19.79;66.41;98206.03;5058420;28;20202;-76